Time;durP1;ratioP1;P1;durP2;ratioP2;P2;SDS_P1;SDS_P2;PMS_P1;PMS_P2;Temp;Humidity;BMP_temperature;BMP_pressure;BME280_temperature;BME280_humidity;BME280_pressure;Samples;Min_cycle;Max_cycle;Signal;HPM_P1;HPM_P2
2022/03/19 00:00:42;;;;;;;81.20;56.80;;;7.00;99.90;;;;;;6191624;23;20770;-86
2022/03/19 00:03:09;;;;;;;71.27;54.47;;;7.00;99.90;;;;;;6191223;23;20441;-86
2022/03/19 00:05:36;;;;;;;74.97;54.33;;;7.00;99.90;;;;;;6201092;23;20410;-87
2022/03/19 00:08:05;;;;;;;67.90;53.00;;;7.00;99.90;;;;;;6193415;23;20433;-87
2022/03/19 00:10:32;;;;;;;71.00;50.87;;;6.90;99.90;;;;;;6193413;23;20389;-87
2022/03/19 00:12:59;;;;;;;63.93;48.20;;;6.90;99.90;;;;;;6193931;23;20390;-88
2022/03/19 00:15:26;;;;;;;71.13;52.13;;;6.90;99.90;;;;;;6195624;23;20410;-87
2022/03/19 00:17:54;;;;;;;71.33;53.93;;;6.80;99.90;;;;;;6193404;23;20410;-88
2022/03/19 00:20:21;;;;;;;67.63;51.83;;;6.80;99.90;;;;;;6196371;23;20414;-87
2022/03/19 00:22:48;;;;;;;71.57;54.90;;;6.80;99.90;;;;;;6193553;23;20402;-87
2022/03/19 00:25:17;;;;;;;74.80;52.20;;;6.80;99.90;;;;;;6190218;23;20481;-86
2022/03/19 00:27:43;;;;;;;68.77;53.97;;;6.80;99.90;;;;;;6190190;23;20410;-87
2022/03/19 00:30:11;;;;;;;72.50;54.97;;;6.80;99.90;;;;;;6189564;23;20402;-87
2022/03/19 00:32:38;;;;;;;75.63;55.47;;;6.70;99.90;;;;;;6188377;23;20413;-87
2022/03/19 00:35:07;;;;;;;75.53;54.70;;;6.70;99.90;;;;;;6194826;23;20457;-87
2022/03/19 00:37:43;;;;;;;71.10;51.37;;;6.70;99.90;;;;;;6191792;23;20698;-88
2022/03/19 00:40:11;;;;;;;67.10;52.97;;;6.70;99.90;;;;;;6196753;23;20397;-86
2022/03/19 00:42:39;;;;;;;72.93;52.63;;;6.80;99.90;;;;;;6213222;23;20414;-87
2022/03/19 00:45:07;;;;;;;71.13;55.30;;;6.80;99.90;;;;;;6212533;23;21007;-87
2022/03/19 00:47:34;;;;;;;67.43;51.83;;;6.80;99.90;;;;;;6208931;23;20474;-87
2022/03/19 00:50:01;;;;;;;66.03;50.53;;;6.80;99.90;;;;;;6194507;23;20405;-87
2022/03/19 00:52:28;;;;;;;69.70;52.47;;;6.80;99.90;;;;;;6192269;23;20421;-87
2022/03/19 00:54:54;;;;;;;74.27;54.00;;;6.70;99.90;;;;;;6210855;23;20454;-87
2022/03/19 00:57:21;;;;;;;68.43;52.13;;;6.60;99.90;;;;;;6199335;23;20417;-88
2022/03/19 00:59:49;;;;;;;65.57;49.77;;;6.60;99.90;;;;;;6211457;23;20416;-87
2022/03/19 01:02:16;;;;;;;74.53;55.10;;;6.60;99.90;;;;;;6211016;23;20473;-87
2022/03/19 01:04:43;;;;;;;73.53;53.50;;;6.50;99.90;;;;;;6208064;23;20428;-87
2022/03/19 01:07:09;;;;;;;73.13;52.60;;;6.50;99.90;;;;;;6201586;23;20420;-86
2022/03/19 01:09:37;;;;;;;64.10;49.77;;;6.50;99.90;;;;;;6192392;23;20417;-86
2022/03/19 01:12:05;;;;;;;64.77;52.70;;;6.50;99.90;;;;;;6190895;23;20425;-87
2022/03/19 01:14:32;;;;;;;68.17;53.63;;;6.50;99.90;;;;;;6199939;23;20442;-86
2022/03/19 01:17:00;;;;;;;61.77;46.93;;;6.50;99.90;;;;;;6190533;23;20883;-87
2022/03/19 01:22:07;;;;;;;65.47;46.30;;;6.60;99.90;;;;;;6184770;23;20751;-87
2022/03/19 01:24:34;;;;;;;64.43;48.90;;;6.70;99.90;;;;;;6185668;23;20749;-87
2022/03/19 01:27:01;;;;;;;66.73;50.30;;;6.80;99.90;;;;;;6184923;23;20394;-87
2022/03/19 01:29:27;;;;;;;61.13;47.73;;;6.70;99.90;;;;;;6184741;23;20414;-87
2022/03/19 01:31:54;;;;;;;61.90;50.80;;;6.70;99.90;;;;;;6184706;23;20733;-87
2022/03/19 01:34:22;;;;;;;66.77;50.20;;;6.80;99.90;;;;;;6186171;23;20442;-86
2022/03/19 01:36:49;;;;;;;66.60;49.20;;;6.80;99.90;;;;;;6184943;23;20414;-86
2022/03/19 01:39:16;;;;;;;58.87;46.40;;;6.80;99.90;;;;;;6184284;23;20390;-87
2022/03/19 01:41:44;;;;;;;61.73;47.90;;;6.70;99.90;;;;;;6184807;23;20410;-86
2022/03/19 01:44:17;;;;;;;64.80;49.90;;;6.70;99.90;;;;;;6185407;23;20444;-87
2022/03/19 01:46:57;;;;;;;62.40;49.10;;;6.70;99.90;;;;;;6187874;23;20378;-87
2022/03/19 01:49:25;;;;;;;57.80;46.67;;;6.60;99.90;;;;;;6203964;23;20417;-86
2022/03/19 01:51:53;;;;;;;64.73;49.93;;;6.70;99.90;;;;;;6188709;23;20402;-87
2022/03/19 01:54:24;;;;;;;60.87;47.57;;;6.70;99.90;;;;;;6190444;23;20442;-87
2022/03/19 01:56:54;;;;;;;63.13;47.90;;;6.70;99.90;;;;;;6185386;23;20853;-86
2022/03/19 01:59:22;;;;;;;62.37;48.87;;;6.70;99.90;;;;;;6186231;23;20970;-86
2022/03/19 02:01:50;;;;;;;64.40;49.13;;;6.70;99.90;;;;;;6184914;23;20532;-86
2022/03/19 02:04:18;;;;;;;61.27;48.03;;;6.70;99.90;;;;;;6184495;23;20425;-87
2022/03/19 02:06:46;;;;;;;63.67;47.70;;;6.80;99.90;;;;;;6200108;23;20437;-88
2022/03/19 02:09:13;;;;;;;64.47;47.47;;;6.80;99.90;;;;;;6190147;23;20682;-87
2022/03/19 02:11:40;;;;;;;65.73;47.03;;;6.70;99.90;;;;;;6186374;23;20409;-87
2022/03/19 02:14:07;;;;;;;65.97;48.20;;;6.70;99.90;;;;;;6186511;23;21049;-87
2022/03/19 02:16:34;;;;;;;61.10;49.83;;;6.60;99.90;;;;;;6187872;23;21202;-87
2022/03/19 02:19:01;;;;;;;64.90;48.53;;;6.50;99.90;;;;;;6193136;23;20418;-87
2022/03/19 02:21:40;;;;;;;66.20;48.63;;;6.60;99.90;;;;;;6189010;23;20410;-85
2022/03/19 02:26:53;;;;;;;64.27;46.87;;;6.40;99.90;;;;;;6188956;23;20433;-86
2022/03/19 02:29:20;;;;;;;64.60;49.20;;;6.30;99.90;;;;;;6189684;23;20417;-85
2022/03/19 02:31:49;;;;;;;60.70;47.47;;;6.30;99.90;;;;;;6212110;23;20406;-87
2022/03/19 02:34:16;;;;;;;61.93;48.33;;;6.30;99.90;;;;;;6200468;23;20442;-86
2022/03/19 02:36:43;;;;;;;61.90;48.40;;;6.20;99.90;;;;;;6212392;23;20482;-85
2022/03/19 02:39:13;;;;;;;61.13;47.60;;;6.20;99.90;;;;;;6204639;23;20493;-85
2022/03/19 02:41:59;;;;;;;70.37;51.30;;;6.10;99.90;;;;;;6213233;23;20413;-85
2022/03/19 02:44:26;;;;;;;61.80;47.73;;;6.10;99.90;;;;;;6209101;23;20438;-85
2022/03/19 02:46:55;;;;;;;63.07;48.53;;;6.30;99.90;;;;;;6206141;23;20398;-86
2022/03/19 02:49:23;;;;;;;59.07;49.10;;;6.20;99.90;;;;;;6187435;23;20732;-85
2022/03/19 02:51:52;;;;;;;72.37;50.50;;;6.20;99.90;;;;;;6186682;23;20468;-85
2022/03/19 02:54:22;;;;;;;65.20;50.93;;;6.20;99.90;;;;;;6187104;23;20452;-86
2022/03/19 02:56:51;;;;;;;62.87;46.97;;;6.10;99.90;;;;;;6187377;23;20942;-86
2022/03/19 02:59:20;;;;;;;56.27;44.30;;;6.00;99.90;;;;;;6188477;23;20416;-86
2022/03/19 03:01:48;;;;;;;62.43;47.10;;;6.00;99.90;;;;;;6188245;23;20462;-86
2022/03/19 03:04:15;;;;;;;65.90;47.70;;;5.90;99.90;;;;;;6187238;23;20748;-86
2022/03/19 03:06:44;;;;;;;63.07;47.60;;;5.90;99.90;;;;;;6199353;23;20409;-86
2022/03/19 03:09:21;;;;;;;64.07;49.20;;;5.80;99.90;;;;;;6195918;23;20397;-87
2022/03/19 03:11:48;;;;;;;58.60;46.57;;;5.80;99.90;;;;;;6204916;23;20390;-86
2022/03/19 03:14:15;;;;;;;64.43;50.13;;;5.80;99.90;;;;;;6211984;23;20433;-87
2022/03/19 03:16:42;;;;;;;63.60;49.13;;;5.70;99.90;;;;;;6199236;23;20401;-85
2022/03/19 03:19:11;;;;;;;61.57;48.70;;;5.80;99.90;;;;;;6206191;23;20412;-86
2022/03/19 03:21:40;;;;;;;60.40;47.30;;;5.70;99.90;;;;;;6188582;23;20409;-86
2022/03/19 03:24:08;;;;;;;60.60;46.33;;;5.60;99.90;;;;;;6187627;23;20426;-86
2022/03/19 03:26:37;;;;;;;64.17;48.07;;;5.60;99.90;;;;;;6188173;23;20405;-86
2022/03/19 03:29:04;;;;;;;63.93;49.37;;;5.60;99.90;;;;;;6188926;23;20410;-85
2022/03/19 03:31:32;;;;;;;62.13;49.00;;;5.60;99.90;;;;;;6190091;23;20409;-86
2022/03/19 03:33:59;;;;;;;62.47;48.70;;;5.70;99.90;;;;;;6192644;23;20437;-86
2022/03/19 03:36:25;;;;;;;64.60;50.70;;;5.70;99.90;;;;;;6194429;23;20394;-87
2022/03/19 03:38:52;;;;;;;63.23;47.10;;;5.70;99.90;;;;;;6205350;23;20412;-86
2022/03/19 03:41:19;;;;;;;68.40;49.57;;;5.60;99.90;;;;;;6187039;23;20394;-85
2022/03/19 03:43:47;;;;;;;65.63;47.70;;;5.60;99.90;;;;;;6191114;23;20767;-86
2022/03/19 03:46:14;;;;;;;59.00;47.00;;;5.50;99.90;;;;;;6191764;23;20431;-85
2022/03/19 03:48:41;;;;;;;60.77;45.37;;;5.50;99.90;;;;;;6209473;23;20524;-86
2022/03/19 03:51:11;;;;;;;64.33;47.10;;;5.50;99.90;;;;;;6201179;23;20406;-86
2022/03/19 03:53:38;;;;;;;60.20;46.73;;;5.40;99.90;;;;;;6200537;23;20440;-86
2022/03/19 03:56:06;;;;;;;60.50;46.23;;;5.30;99.90;;;;;;6186391;23;20449;-86
2022/03/19 03:58:33;;;;;;;67.67;47.60;;;5.30;99.90;;;;;;6188610;23;20405;-86
2022/03/19 04:01:01;;;;;;;64.03;47.10;;;5.20;99.90;;;;;;6195690;23;21209;-87
2022/03/19 04:03:28;;;;;;;65.47;46.80;;;5.20;99.90;;;;;;6186666;23;20436;-86
2022/03/19 04:05:55;;;;;;;61.20;46.40;;;5.20;99.90;;;;;;6186962;23;20406;-86
2022/03/19 04:08:21;;;;;;;64.73;48.63;;;5.20;99.90;;;;;;6186027;23;20414;-87
2022/03/19 04:10:48;;;;;;;63.00;49.00;;;5.20;99.90;;;;;;6185852;23;20417;-87
2022/03/19 04:13:15;;;;;;;68.50;48.90;;;5.10;99.90;;;;;;6185661;23;20448;-87
2022/03/19 04:15:55;;;;;;;62.00;48.70;;;5.10;99.90;;;;;;6186376;23;20438;-86
2022/03/19 04:18:23;;;;;;;73.47;49.97;;;5.10;99.90;;;;;;6212492;23;20397;-86
2022/03/19 04:20:50;;;;;;;62.73;47.00;;;5.10;99.90;;;;;;6202520;23;20441;-85
2022/03/19 04:23:17;;;;;;;67.00;48.87;;;5.10;99.90;;;;;;6190744;23;21009;-84
2022/03/19 04:25:44;;;;;;;61.07;47.37;;;5.10;99.90;;;;;;6210484;23;20437;-86
2022/03/19 04:28:12;;;;;;;61.57;48.00;;;5.00;99.90;;;;;;6209964;23;20409;-84
2022/03/19 04:30:41;;;;;;;59.83;45.53;;;5.00;99.90;;;;;;6211601;23;20404;-85
2022/03/19 04:33:08;;;;;;;67.60;49.30;;;5.00;99.90;;;;;;6211942;23;20416;-85
2022/03/19 04:38:23;;;;;;;64.87;49.07;;;4.80;99.90;;;;;;6185653;23;20385;-86
2022/03/19 04:40:52;;;;;;;72.73;49.80;;;4.80;99.90;;;;;;6185579;23;20419;-86
2022/03/19 04:43:24;;;;;;;64.10;48.40;;;4.80;99.90;;;;;;6184866;23;20422;-86
2022/03/19 04:45:50;;;;;;;66.27;47.90;;;4.70;99.90;;;;;;6185660;23;20393;-86
2022/03/19 04:48:17;;;;;;;65.70;47.53;;;4.70;99.90;;;;;;6186263;23;20418;-87
2022/03/19 04:50:46;;;;;;;67.57;47.67;;;4.70;99.90;;;;;;6199091;23;20417;-86
2022/03/19 04:53:13;;;;;;;63.93;48.27;;;4.60;99.90;;;;;;6184659;23;20519;-87
2022/03/19 04:55:40;;;;;;;63.90;49.40;;;4.70;99.90;;;;;;6185540;23;20429;-87
2022/03/19 04:58:08;;;;;;;65.27;47.20;;;4.60;99.90;;;;;;6186366;23;20406;-87
2022/03/19 05:00:37;;;;;;;62.27;47.23;;;4.70;99.90;;;;;;6186967;23;20742;-87
2022/03/19 05:03:04;;;;;;;61.70;47.60;;;4.60;99.90;;;;;;6185742;23;20423;-87
2022/03/19 05:05:30;;;;;;;67.87;48.37;;;4.60;99.90;;;;;;6185253;23;20401;-87
2022/03/19 05:07:59;;;;;;;65.00;45.87;;;4.70;99.90;;;;;;6193904;23;20396;-86
2022/03/19 05:13:10;;;;;;;68.07;47.60;;;4.60;99.90;;;;;;6190212;23;20440;-86
2022/03/19 05:15:38;;;;;;;58.53;45.27;;;4.60;99.90;;;;;;6195082;23;20468;-86
2022/03/19 05:18:05;;;;;;;62.03;44.37;;;4.60;99.90;;;;;;6185380;23;20413;-86
2022/03/19 05:20:32;;;;;;;60.60;46.50;;;4.60;99.90;;;;;;6185096;23;20393;-86
2022/03/19 05:23:00;;;;;;;63.10;48.03;;;4.50;99.90;;;;;;6184914;23;20416;-86
2022/03/19 05:25:27;;;;;;;66.70;48.67;;;4.40;99.90;;;;;;6207740;23;20400;-87
2022/03/19 05:27:53;;;;;;;61.17;44.43;;;4.50;99.90;;;;;;6203647;23;20505;-86
2022/03/19 05:30:20;;;;;;;63.90;45.77;;;4.50;99.90;;;;;;6203524;23;20386;-87
2022/03/19 05:32:50;;;;;;;64.10;44.47;;;4.50;99.90;;;;;;6199043;23;20417;-87
2022/03/19 05:35:18;;;;;;;57.80;43.27;;;4.60;99.90;;;;;;6194966;23;20444;-85
2022/03/19 05:37:45;;;;;;;64.37;46.50;;;4.60;99.90;;;;;;6188200;23;20478;-85
2022/03/19 05:40:14;;;;;;;60.47;45.33;;;4.60;99.90;;;;;;6191135;23;20485;-86
2022/03/19 05:42:41;;;;;;;63.17;46.07;;;4.60;99.90;;;;;;6199990;23;20408;-86
2022/03/19 05:45:09;;;;;;;68.23;47.80;;;4.60;99.90;;;;;;6196547;23;20425;-86
2022/03/19 05:50:16;;;;;;;59.37;45.00;;;4.70;99.90;;;;;;6215384;23;20421;-87
2022/03/19 05:52:45;;;;;;;58.50;43.30;;;4.80;99.90;;;;;;6214760;23;20396;-86
2022/03/19 05:55:14;;;;;;;62.63;44.97;;;4.80;99.90;;;;;;6221719;23;20480;-86
2022/03/19 05:57:41;;;;;;;60.47;45.00;;;4.80;99.90;;;;;;6216017;23;20405;-86
2022/03/19 06:00:10;;;;;;;62.43;46.57;;;4.70;99.90;;;;;;6216138;23;20537;-87
2022/03/19 06:02:40;;;;;;;63.10;45.10;;;4.80;99.90;;;;;;6235409;23;20413;-86
2022/03/19 06:05:08;;;;;;;60.67;43.43;;;4.90;99.90;;;;;;6217817;23;20463;-86
2022/03/19 06:07:34;;;;;;;56.47;44.87;;;4.90;99.90;;;;;;6215855;23;20518;-86
2022/03/19 06:10:01;;;;;;;60.77;45.13;;;5.00;99.90;;;;;;6215354;23;20428;-87
2022/03/19 06:12:30;;;;;;;55.63;43.00;;;5.00;99.90;;;;;;6216169;23;20915;-85
2022/03/19 06:14:56;;;;;;;59.53;44.87;;;5.10;99.90;;;;;;6216749;23;20424;-85
2022/03/19 06:17:23;;;;;;;63.40;46.60;;;5.10;99.90;;;;;;6235635;23;20396;-85
2022/03/19 06:19:51;;;;;;;57.10;43.03;;;5.20;99.90;;;;;;6241094;23;20458;-86
2022/03/19 06:22:18;;;;;;;59.27;45.07;;;5.30;99.90;;;;;;6231551;23;20405;-86
2022/03/19 06:24:45;;;;;;;63.00;49.30;;;5.40;99.90;;;;;;6225092;23;20415;-87
2022/03/19 06:27:12;;;;;;;52.83;41.87;;;5.40;99.90;;;;;;6224774;23;20405;-87
2022/03/19 06:29:41;;;;;;;57.13;44.80;;;5.50;99.90;;;;;;6216922;23;20432;-86
2022/03/19 06:32:08;;;;;;;59.97;46.20;;;5.60;99.90;;;;;;6227004;23;20990;-87
2022/03/19 06:34:35;;;;;;;55.33;45.03;;;5.70;99.90;;;;;;6215423;23;20405;-88
2022/03/19 06:39:45;;;;;;;53.03;44.10;;;5.90;99.90;;;;;;6216158;23;20424;-87
2022/03/19 06:42:12;;;;;;;55.10;45.03;;;6.00;99.90;;;;;;6215338;23;20416;-87
2022/03/19 06:44:40;;;;;;;58.77;44.07;;;6.10;99.90;;;;;;6216004;23;20416;-87
2022/03/19 06:47:07;;;;;;;55.33;42.67;;;6.20;99.90;;;;;;6217941;23;20796;-87
2022/03/19 06:49:34;;;;;;;54.67;43.30;;;6.30;99.90;;;;;;6231699;23;20469;-87
2022/03/19 06:52:01;;;;;;;60.20;44.67;;;6.40;99.90;;;;;;6226956;23;20789;-88
2022/03/19 06:54:27;;;;;;;56.40;43.90;;;6.50;99.90;;;;;;6218756;23;20412;-87
2022/03/19 06:56:54;;;;;;;54.20;42.70;;;6.60;99.90;;;;;;6223028;23;20441;-87
2022/03/19 06:59:21;;;;;;;54.90;42.03;;;6.70;99.90;;;;;;6216228;23;20437;-87
2022/03/19 07:01:49;;;;;;;54.60;41.23;;;6.80;99.90;;;;;;6220811;23;20411;-87
2022/03/19 07:04:16;;;;;;;53.60;42.27;;;6.90;99.90;;;;;;6243089;23;20941;-86
2022/03/19 07:06:45;;;;;;;56.03;42.07;;;7.00;99.90;;;;;;6230585;23;20377;-87
2022/03/19 07:09:12;;;;;;;55.83;42.77;;;7.10;99.90;;;;;;6231772;23;20443;-87
2022/03/19 07:11:42;;;;;;;51.97;40.77;;;7.20;99.90;;;;;;6238616;23;20401;-86
2022/03/19 07:14:09;;;;;;;52.70;39.87;;;7.30;99.90;;;;;;6238567;23;20405;-87
2022/03/19 07:16:37;;;;;;;49.83;39.50;;;7.40;99.50;;;;;;6221281;23;20433;-88
2022/03/19 07:19:05;;;;;;;54.80;44.23;;;7.50;99.00;;;;;;6217957;23;20443;-88
2022/03/19 07:21:32;;;;;;;54.40;42.47;;;7.60;98.60;;;;;;6239807;23;20416;-88
2022/03/19 07:23:59;;;;;;;51.63;41.07;;;7.70;98.10;;;;;;6230878;23;20420;-88
2022/03/19 07:26:26;;;;;;;48.30;41.23;;;7.70;98.00;;;;;;6218560;23;20401;-88
2022/03/19 07:28:53;;;;;;;49.60;40.90;;;7.80;97.80;;;;;;6219027;23;20994;-87
2022/03/19 07:31:20;;;;;;;52.37;38.40;;;7.90;97.30;;;;;;6217267;23;20408;-88
2022/03/19 07:33:47;;;;;;;51.10;40.60;;;7.90;96.50;;;;;;6216964;23;20408;-88
2022/03/19 07:36:15;;;;;;;48.67;37.17;;;8.10;95.90;;;;;;6227329;23;20447;-84
2022/03/19 07:38:41;;;;;;;45.80;39.10;;;8.20;95.10;;;;;;6217344;23;20421;-84
2022/03/19 07:43:59;;;;;;;44.30;34.80;;;8.60;93.40;;;;;;6194232;23;20404;-84
2022/03/19 07:46:27;;;;;;;45.27;35.57;;;9.10;91.60;;;;;;6217982;23;20435;-83
2022/03/19 07:48:53;;;;;;;40.83;32.53;;;9.40;90.40;;;;;;6218644;23;20445;-84
2022/03/19 07:51:21;;;;;;;39.83;35.50;;;9.40;89.00;;;;;;6223400;23;20401;-84
2022/03/19 07:53:48;;;;;;;39.33;32.43;;;9.80;88.10;;;;;;6238088;23;20385;-86
2022/03/19 07:56:15;;;;;;;41.90;31.50;;;10.20;85.70;;;;;;6243933;23;20433;-87
2022/03/19 07:58:42;;;;;;;43.77;34.37;;;10.60;83.10;;;;;;6243305;23;20429;-87
2022/03/19 08:01:13;;;;;;;36.23;32.23;;;10.70;82.90;;;;;;6242160;23;20389;-88
2022/03/19 08:03:39;;;;;;;40.00;32.20;;;11.40;79.70;;;;;;6236790;23;20385;-87
2022/03/19 08:06:06;;;;;;;39.13;31.33;;;11.10;77.80;;;;;;6217343;23;20401;-88
2022/03/19 08:08:36;;;;;;;38.07;33.57;;;10.90;77.90;;;;;;6216505;23;20764;-87
2022/03/19 08:11:02;;;;;;;36.77;30.90;;;11.50;77.50;;;;;;6215307;23;20408;-87
2022/03/19 08:13:29;;;;;;;34.77;31.03;;;12.20;74.40;;;;;;6216050;23;20409;-87
2022/03/19 08:15:56;;;;;;;34.10;29.83;;;12.70;70.00;;;;;;6215711;23;20440;-87
2022/03/19 08:18:23;;;;;;;33.23;29.70;;;12.70;68.60;;;;;;6215911;23;20915;-88
2022/03/19 08:20:50;;;;;;;36.90;31.97;;;13.00;67.80;;;;;;6216898;23;20516;-87
2022/03/19 08:23:19;;;;;;;35.83;31.20;;;12.50;65.30;;;;;;6215950;23;20899;-87
2022/03/19 08:25:47;;;;;;;34.83;30.00;;;12.10;66.60;;;;;;6220856;23;20471;-87
2022/03/19 08:28:14;;;;;;;32.60;29.07;;;12.50;67.20;;;;;;6220522;23;20432;-87
2022/03/19 08:30:41;;;;;;;32.40;29.00;;;12.70;65.70;;;;;;6216894;23;20914;-87
2022/03/19 08:33:08;;;;;;;33.13;29.70;;;12.60;65.80;;;;;;6217210;23;20460;-88
2022/03/19 08:35:35;;;;;;;32.90;28.83;;;13.50;66.00;;;;;;6226988;23;20385;-87
2022/03/19 08:40:47;;;;;;;37.67;30.40;;;15.40;60.60;;;;;;6217942;23;20897;-87
2022/03/19 08:43:15;;;;;;;32.20;28.73;;;15.80;58.30;;;;;;6216316;23;20411;-87
2022/03/19 08:45:41;;;;;;;32.73;29.23;;;15.90;56.50;;;;;;6216269;23;20401;-88
2022/03/19 08:48:09;;;;;;;33.90;30.50;;;14.80;56.20;;;;;;6215411;23;20440;-86
2022/03/19 08:50:36;;;;;;;32.77;29.43;;;15.00;57.00;;;;;;6226443;23;20416;-89
2022/03/19 08:53:03;;;;;;;35.30;30.53;;;15.10;56.40;;;;;;6221934;23;20412;-86
2022/03/19 08:55:29;;;;;;;32.63;29.13;;;15.00;56.10;;;;;;6217337;23;20404;-87
2022/03/19 08:57:57;;;;;;;33.57;29.73;;;14.90;56.30;;;;;;6225563;23;20443;-87
2022/03/19 09:00:24;;;;;;;31.53;28.33;;;15.00;56.00;;;;;;6223138;23;20408;-89
2022/03/19 09:02:51;;;;;;;30.57;27.27;;;15.20;55.00;;;;;;6218194;23;20793;-87
2022/03/19 09:05:18;;;;;;;32.97;29.60;;;15.00;55.10;;;;;;6216318;23;20408;-86
2022/03/19 09:07:44;;;;;;;32.13;28.70;;;14.70;56.00;;;;;;6217210;23;20425;-87
2022/03/19 09:10:11;;;;;;;30.87;27.87;;;15.10;55.40;;;;;;6216504;23;20409;-87
2022/03/19 09:12:40;;;;;;;33.90;30.40;;;15.40;55.40;;;;;;6224289;23;20464;-87
2022/03/19 09:15:11;;;;;;;34.60;30.30;;;16.80;53.90;;;;;;6240210;23;20405;-87
2022/03/19 09:17:38;;;;;;;31.83;28.53;;;18.10;51.80;;;;;;6243402;23;20413;-87
2022/03/19 09:20:06;;;;;;;33.93;30.30;;;19.10;50.60;;;;;;6243627;23;20443;-86
2022/03/19 09:22:32;;;;;;;32.70;29.60;;;19.30;48.10;;;;;;6243285;23;20401;-86
2022/03/19 09:24:59;;;;;;;33.23;30.03;;;18.70;47.80;;;;;;6242194;23;20927;-88
2022/03/19 09:27:26;;;;;;;32.90;29.77;;;17.80;48.20;;;;;;6225727;23;20384;-88
2022/03/19 09:29:52;;;;;;;36.73;32.83;;;16.90;49.50;;;;;;6242182;23;20423;-86
2022/03/19 09:32:20;;;;;;;34.27;30.77;;;17.10;50.40;;;;;;6241911;23;20424;-85
2022/03/19 09:34:49;;;;;;;33.43;30.10;;;17.50;49.60;;;;;;6238748;23;20455;-85
2022/03/19 09:37:16;;;;;;;35.33;31.73;;;17.90;49.80;;;;;;6228753;23;20436;-85
2022/03/19 09:39:42;;;;;;;35.83;32.13;;;17.80;48.50;;;;;;6219237;23;20425;-86
2022/03/19 09:42:12;;;;;;;34.57;31.07;;;16.70;49.30;;;;;;6218251;23;20437;-85
2022/03/19 09:44:40;;;;;;;32.87;29.63;;;16.60;50.80;;;;;;6216386;23;20441;-86
2022/03/19 09:47:07;;;;;;;32.87;29.60;;;17.60;49.80;;;;;;6216704;23;20405;-85
2022/03/19 09:49:39;;;;;;;33.13;30.00;;;17.30;49.50;;;;;;6216438;23;20432;-88
2022/03/19 09:52:06;;;;;;;33.50;30.17;;;17.40;49.00;;;;;;6218385;23;20861;-89
2022/03/19 09:54:33;;;;;;;33.50;30.27;;;17.60;48.40;;;;;;6227115;23;20491;-91
2022/03/19 09:57:00;;;;;;;32.70;29.50;;;18.60;47.60;;;;;;6224761;23;20440;-88
2022/03/19 09:59:27;;;;;;;33.60;30.33;;;18.20;46.60;;;;;;6222146;23;20413;-85
2022/03/19 10:01:54;;;;;;;31.73;28.63;;;17.90;47.00;;;;;;6222592;23;20436;-85
2022/03/19 10:04:20;;;;;;;34.20;30.60;;;18.90;46.10;;;;;;6218175;23;20401;-86
2022/03/19 10:09:42;;;;;;;32.33;29.13;;;18.10;46.70;;;;;;6219040;23;20922;-86
2022/03/19 10:12:13;;;;;;;34.90;31.40;;;17.50;47.40;;;;;;6215921;23;20447;-86
2022/03/19 10:14:40;;;;;;;33.50;29.97;;;17.60;47.70;;;;;;6215311;23;20756;-85
2022/03/19 10:17:10;;;;;;;33.10;29.77;;;19.00;46.50;;;;;;6215751;23;20457;-86
2022/03/19 10:19:50;;;;;;;33.67;30.47;;;18.30;45.60;;;;;;6218636;23;20430;-85
2022/03/19 10:22:25;;;;;;;33.27;29.67;;;17.50;47.20;;;;;;6216088;23;20436;-86
2022/03/19 10:24:57;;;;;;;33.27;29.87;;;18.50;47.20;;;;;;6217606;23;20433;-86
2022/03/19 10:27:24;;;;;;;35.27;31.57;;;20.30;45.50;;;;;;6223666;23;20383;-86
2022/03/19 10:30:02;;;;;;;37.10;33.33;;;20.60;44.00;;;;;;6219154;23;20442;-85
2022/03/19 10:32:28;;;;;;;36.50;32.70;;;21.00;43.60;;;;;;6216870;23;20387;-85
2022/03/19 10:34:55;;;;;;;33.43;30.23;;;21.10;44.40;;;;;;6225788;23;20411;-86
2022/03/19 10:37:35;;;;;;;37.17;33.63;;;22.40;42.70;;;;;;6218908;23;20444;-85
2022/03/19 10:40:02;;;;;;;37.10;33.70;;;23.50;41.10;;;;;;6216703;23;20409;-85
2022/03/19 10:42:36;;;;;;;37.57;33.93;;;23.00;40.70;;;;;;6216413;23;20414;-85
2022/03/19 10:45:03;;;;;;;37.37;33.90;;;22.30;41.60;;;;;;6216418;23;20385;-85
2022/03/19 10:47:39;;;;;;;36.53;32.80;;;21.20;41.70;;;;;;6215924;23;20879;-86
2022/03/19 10:50:07;;;;;;;38.87;35.07;;;21.80;42.70;;;;;;6218970;23;20833;-86
2022/03/19 10:52:36;;;;;;;40.20;36.33;;;20.80;42.60;;;;;;6234710;23;20466;-86
2022/03/19 10:55:04;;;;;;;42.40;38.20;;;19.30;45.20;;;;;;6220654;23;20401;-86
2022/03/19 10:57:32;;;;;;;36.77;33.10;;;18.60;47.10;;;;;;6217858;23;20441;-85
2022/03/19 10:59:59;;;;;;;38.30;34.40;;;18.20;47.50;;;;;;6220452;23;20431;-86
2022/03/19 11:02:28;;;;;;;34.93;31.43;;;18.00;47.90;;;;;;6228034;23;20408;-84
2022/03/19 11:04:58;;;;;;;38.30;31.63;;;17.00;48.50;;;;;;6231063;23;20409;-85
2022/03/19 11:07:25;;;;;;;34.50;30.80;;;17.10;48.00;;;;;;6239275;23;20385;-86
2022/03/19 11:09:57;;;;;;;36.87;31.30;;;16.70;48.60;;;;;;6216861;23;20433;-85
2022/03/19 11:12:28;;;;;;;31.37;27.97;;;17.40;48.90;;;;;;6216911;23;20943;-83
2022/03/19 11:14:58;;;;;;;27.60;24.67;;;18.80;45.80;;;;;;6216140;23;20495;-86
2022/03/19 11:17:30;;;;;;;28.57;25.83;;;19.50;44.70;;;;;;6217150;23;20435;-85
2022/03/19 11:20:00;;;;;;;25.90;23.23;;;21.10;42.60;;;;;;6216385;23;21104;-86
2022/03/19 11:22:39;;;;;;;22.93;20.77;;;22.10;41.10;;;;;;6216889;23;20419;-85
2022/03/19 11:25:12;;;;;;;24.50;21.97;;;22.20;38.60;;;;;;6217755;23;20389;-86
2022/03/19 11:27:41;;;;;;;25.33;20.17;;;22.70;37.80;;;;;;6217555;23;20387;-85
2022/03/19 11:30:17;;;;;;;22.13;18.63;;;21.90;37.50;;;;;;6218349;23;20422;-85
2022/03/19 11:33:02;;;;;;;22.57;20.40;;;21.80;39.10;;;;;;6216825;23;20781;-85
2022/03/19 11:35:29;;;;;;;21.17;18.90;;;21.80;38.30;;;;;;6216668;23;20398;-85
2022/03/19 11:38:00;;;;;;;20.63;18.43;;;22.20;38.20;;;;;;6218751;23;20444;-85
2022/03/19 11:40:35;;;;;;;18.90;17.10;;;21.60;38.60;;;;;;6219025;23;20901;-85
2022/03/19 11:43:05;;;;;;;19.00;17.03;;;21.20;38.50;;;;;;6219286;23;20474;-85
2022/03/19 11:45:40;;;;;;;19.10;16.80;;;20.20;39.20;;;;;;6238681;23;20390;-84
2022/03/19 11:48:38;;;;;;;24.63;19.07;;;19.50;39.60;;;;;;6227040;23;20416;-84
2022/03/19 11:51:35;;;;;;;18.83;16.90;;;19.90;42.00;;;;;;6157797;23;20410;-85
2022/03/19 11:54:03;;;;;;;17.00;15.23;;;21.10;40.10;;;;;;6162242;23;20397;-85
2022/03/19 11:57:06;;;;;;;18.00;16.10;;;22.40;39.70;;;;;;6162207;23;20410;-84
2022/03/19 11:59:43;;;;;;;14.90;13.37;;;22.20;38.40;;;;;;6166812;23;20484;-86
2022/03/19 12:02:10;;;;;;;17.50;14.60;;;21.20;37.90;;;;;;6162436;23;20398;-85
2022/03/19 12:04:47;;;;;;;18.67;14.50;;;20.60;39.00;;;;;;6161230;23;20410;-85
2022/03/19 12:07:41;;;;;;;16.57;14.47;;;21.50;38.70;;;;;;6161302;23;20429;-84
2022/03/19 12:10:12;;;;;;;15.93;14.43;;;22.10;37.70;;;;;;6161368;23;20456;-85
2022/03/19 12:12:41;;;;;;;16.27;14.37;;;22.60;36.40;;;;;;6161975;23;20769;-85
2022/03/19 12:15:46;;;;;;;16.97;15.27;;;22.70;36.50;;;;;;6162597;23;20727;-85
2022/03/19 12:18:32;;;;;;;18.87;14.60;;;22.10;36.50;;;;;;6164378;23;20806;-85
2022/03/19 12:21:01;;;;;;;17.57;14.47;;;20.70;38.30;;;;;;6161351;23;20710;-85
2022/03/19 12:23:28;;;;;;;18.03;13.80;;;21.90;38.70;;;;;;6161347;23;20436;-86
2022/03/19 12:26:01;;;;;;;16.80;14.27;;;23.00;36.30;;;;;;6162691;23;20788;-84
2022/03/19 12:31:34;;;;;;;14.80;13.30;;;22.30;34.30;;;;;;6168128;23;20395;-84
2022/03/19 12:34:02;;;;;;;15.50;13.93;;;22.20;35.20;;;;;;6170141;23;20413;-85
2022/03/19 12:36:29;;;;;;;17.57;15.23;;;22.50;36.10;;;;;;6176225;23;20403;-83
2022/03/19 12:39:00;;;;;;;15.40;13.80;;;22.00;36.20;;;;;;6171612;23;20458;-84
2022/03/19 12:41:28;;;;;;;16.17;14.57;;;21.10;37.10;;;;;;6167639;23;20391;-87
2022/03/19 12:43:57;;;;;;;14.67;13.27;;;19.70;37.50;;;;;;6167460;23;20411;-84
2022/03/19 12:46:25;;;;;;;13.50;11.73;;;18.10;38.70;;;;;;6179693;23;20403;-87
2022/03/19 12:48:52;;;;;;;13.93;12.37;;;17.60;39.60;;;;;;6169595;23;20436;-85
2022/03/19 12:51:26;;;;;;;14.50;11.00;;;17.30;40.10;;;;;;6182506;23;20403;-86
2022/03/19 12:53:53;;;;;;;13.33;11.87;;;17.00;40.30;;;;;;6180940;23;20414;-84
2022/03/19 12:56:22;;;;;;;13.87;11.27;;;16.50;40.10;;;;;;6178241;23;20391;-86
2022/03/19 12:58:51;;;;;;;13.37;10.90;;;17.80;40.90;;;;;;6171571;23;20453;-84
2022/03/19 13:01:21;;;;;;;11.77;10.40;;;19.00;36.10;;;;;;6170467;23;20403;-86
2022/03/19 13:03:52;;;;;;;13.73;11.37;;;19.50;35.20;;;;;;6173096;23;20434;-85
2022/03/19 13:06:27;;;;;;;13.77;12.23;;;21.00;35.90;;;;;;6177714;23;20394;-85
2022/03/19 13:08:54;;;;;;;13.40;12.10;;;21.70;35.50;;;;;;6178423;23;20938;-86